Time;durP1;ratioP1;P1;durP2;ratioP2;P2;SDS_P1;SDS_P2;PMS_P1;PMS_P2;Temp;Humidity;BMP_temperature;BMP_pressure;BME280_temperature;BME280_humidity;BME280_pressure;Samples;Min_cycle;Max_cycle;Signal;HPM_P1;HPM_P2
2020/12/04 00:01:16;;;;;;;2.13;0.85;;;5.20;99.90;;;;;;10461086;28;20119;-50
2020/12/04 00:06:37;;;;;;;1.83;0.82;;;5.20;99.90;;;;;;10453451;28;20048;-50
2020/12/04 00:11:58;;;;;;;1.50;0.82;;;5.20;99.90;;;;;;10459162;28;20606;-50
2020/12/04 00:17:19;;;;;;;2.33;1.23;;;5.10;99.90;;;;;;10456354;28;20045;-50
2020/12/04 00:22:41;;;;;;;2.78;0.75;;;5.20;99.90;;;;;;10464504;28;20040;-50
2020/12/04 00:28:02;;;;;;;3.03;1.52;;;5.20;99.90;;;;;;10454498;28;20047;-49
2020/12/04 00:33:23;;;;;;;3.25;1.27;;;5.10;99.90;;;;;;10455359;28;20546;-50
2020/12/04 00:38:44;;;;;;;4.10;1.88;;;5.10;99.90;;;;;;10460314;28;20043;-50
2020/12/04 00:44:05;;;;;;;14.73;2.28;;;5.10;99.90;;;;;;10460157;28;20036;-50
2020/12/04 00:49:26;;;;;;;2.85;1.63;;;5.10;99.90;;;;;;10454925;28;20062;-49
2020/12/04 00:54:47;;;;;;;3.78;1.70;;;5.10;99.90;;;;;;10455872;28;20034;-49
2020/12/04 01:00:09;;;;;;;4.22;1.27;;;5.10;99.90;;;;;;10460062;28;20052;-50
2020/12/04 01:05:30;;;;;;;3.97;1.23;;;5.10;99.90;;;;;;10461965;28;20037;-49
2020/12/04 01:10:51;;;;;;;5.80;2.60;;;5.10;99.90;;;;;;10457126;28;20039;-49
2020/12/04 01:16:12;;;;;;;2.75;1.20;;;5.10;99.90;;;;;;10460060;28;20399;-49
2020/12/04 01:21:33;;;;;;;3.58;1.73;;;5.00;99.90;;;;;;10453812;28;20086;-49
2020/12/04 01:26:54;;;;;;;2.42;1.10;;;5.10;99.90;;;;;;10463869;28;20032;-49
2020/12/04 01:32:15;;;;;;;3.78;1.92;;;5.10;99.90;;;;;;10458808;28;20110;-50
2020/12/04 01:37:36;;;;;;;4.45;1.27;;;5.10;99.90;;;;;;10457892;28;20151;-49
2020/12/04 01:42:57;;;;;;;2.05;1.10;;;5.10;99.90;;;;;;10459321;28;20063;-49
2020/12/04 01:48:19;;;;;;;3.28;1.13;;;5.10;99.90;;;;;;10441446;28;20034;-49
2020/12/04 01:53:44;;;;;;;4.78;1.58;;;5.10;99.90;;;;;;10459944;28;20111;-49
2020/12/04 01:59:05;;;;;;;5.30;1.65;;;5.10;99.90;;;;;;10453115;28;20399;-49
2020/12/04 02:04:26;;;;;;;3.42;1.25;;;5.00;99.90;;;;;;10455901;28;20044;-50
2020/12/04 02:09:51;;;;;;;2.97;1.08;;;5.00;99.90;;;;;;10454021;28;20041;-50
2020/12/04 02:15:13;;;;;;;3.15;1.13;;;5.00;99.90;;;;;;10458334;28;20037;-50
2020/12/04 02:20:34;;;;;;;3.00;1.77;;;4.90;99.90;;;;;;10453892;28;20146;-50
2020/12/04 02:25:57;;;;;;;4.45;1.63;;;5.00;99.90;;;;;;10457262;28;20127;-49
2020/12/04 02:31:21;;;;;;;3.15;1.30;;;4.90;99.90;;;;;;10455318;28;20036;-50
2020/12/04 02:36:42;;;;;;;6.60;1.77;;;5.00;99.90;;;;;;10454440;28;20037;-50
2020/12/04 02:42:04;;;;;;;2.40;1.35;;;4.90;99.90;;;;;;10437613;28;20033;-50
2020/12/04 02:47:26;;;;;;;6.53;1.65;;;4.90;99.90;;;;;;10450826;28;20041;-50
2020/12/04 02:52:47;;;;;;;4.30;1.27;;;4.90;99.90;;;;;;10464153;28;20032;-50
2020/12/04 02:58:08;;;;;;;2.83;0.80;;;4.90;99.90;;;;;;10461158;28;20041;-50
2020/12/04 03:03:29;;;;;;;1.63;0.77;;;5.00;99.90;;;;;;10457363;28;20608;-50
2020/12/04 03:08:50;;;;;;;3.40;1.02;;;5.00;99.90;;;;;;10462704;28;20476;-50
2020/12/04 03:14:11;;;;;;;1.48;0.60;;;5.00;99.90;;;;;;10453660;28;20060;-50
2020/12/04 03:19:32;;;;;;;4.93;1.73;;;5.10;99.90;;;;;;10452677;28;20067;-50
2020/12/04 03:24:53;;;;;;;1.83;0.65;;;5.00;99.90;;;;;;10458300;28;20032;-50
2020/12/04 03:30:14;;;;;;;2.90;1.17;;;5.10;99.90;;;;;;10450359;28;20033;-50
2020/12/04 03:35:35;;;;;;;2.65;0.80;;;5.10;99.90;;;;;;10451034;28;20045;-50
2020/12/04 03:40:57;;;;;;;4.68;1.15;;;5.10;99.90;;;;;;10453844;28;20025;-50
2020/12/04 03:46:18;;;;;;;1.65;0.82;;;5.20;99.90;;;;;;10447228;28;20064;-50
2020/12/04 03:51:40;;;;;;;3.35;1.00;;;5.20;99.90;;;;;;10451505;28;20404;-50
2020/12/04 03:57:00;;;;;;;1.17;0.60;;;5.20;99.90;;;;;;10447687;28;20049;-49
2020/12/04 04:02:21;;;;;;;1.25;0.95;;;5.30;99.90;;;;;;10451846;28;20045;-50
2020/12/04 04:07:42;;;;;;;1.20;0.80;;;5.30;99.90;;;;;;10447596;28;20040;-50
2020/12/04 04:13:03;;;;;;;2.13;0.80;;;5.30;99.90;;;;;;10444138;28;20071;-50
2020/12/04 04:18:24;;;;;;;1.95;0.60;;;5.40;99.90;;;;;;10457513;28;20055;-50
2020/12/04 04:23:45;;;;;;;1.30;0.50;;;5.40;99.90;;;;;;10467441;28;20047;-50
2020/12/04 04:29:06;;;;;;;2.85;1.17;;;5.40;99.90;;;;;;10448027;28;20029;-50
2020/12/04 04:34:27;;;;;;;2.22;0.75;;;5.50;99.90;;;;;;10458559;28;20040;-50
2020/12/04 04:39:48;;;;;;;1.77;0.47;;;5.60;99.90;;;;;;10448923;28;20640;-50
2020/12/04 04:45:10;;;;;;;0.70;0.30;;;5.60;99.90;;;;;;10456407;28;20374;-50
2020/12/04 04:50:34;;;;;;;2.00;0.73;;;5.70;99.90;;;;;;10443366;28;20212;-50
2020/12/04 04:55:55;;;;;;;1.75;0.30;;;5.70;99.90;;;;;;10453685;28;20683;-50
2020/12/04 05:01:17;;;;;;;1.00;0.35;;;5.70;99.90;;;;;;10458438;28;20093;-50
2020/12/04 05:06:38;;;;;;;1.52;0.93;;;5.70;99.90;;;;;;10454521;28;20036;-51
2020/12/04 05:12:00;;;;;;;1.27;0.40;;;5.80;99.90;;;;;;10462378;28;20032;-50
2020/12/04 05:17:21;;;;;;;0.50;0.40;;;5.80;99.90;;;;;;10459060;28;20139;-50
2020/12/04 05:22:54;;;;;;;2.15;0.57;;;5.90;99.90;;;;;;10452522;28;20595;-50
2020/12/04 05:28:18;;;;;;;1.58;0.45;;;5.90;99.90;;;;;;10456011;28;20037;-49
2020/12/04 05:33:44;;;;;;;0.35;0.10;;;5.90;99.90;;;;;;10457906;28;20036;-49
2020/12/04 05:39:05;;;;;;;0.95;0.30;;;5.90;99.90;;;;;;10454028;28;20130;-49
2020/12/04 05:44:26;;;;;;;1.52;0.57;;;5.90;99.90;;;;;;10455609;28;20036;-49
2020/12/04 05:49:47;;;;;;;0.95;0.43;;;6.00;99.90;;;;;;10458721;28;20838;-50
2020/12/04 05:55:10;;;;;;;1.00;0.20;;;6.00;99.90;;;;;;10452629;28;20090;-50
2020/12/04 06:00:32;;;;;;;1.30;0.20;;;6.20;99.90;;;;;;10456069;28;20076;-49
2020/12/04 06:05:55;;;;;;;0.80;0.20;;;6.10;99.90;;;;;;10463710;28;20031;-49
2020/12/04 06:11:17;;;;;;;0.63;0.40;;;6.20;99.90;;;;;;10459623;28;20501;-50
2020/12/04 06:16:38;;;;;;;1.23;0.43;;;6.20;99.90;;;;;;10459061;28;20387;-50
2020/12/04 06:22:14;;;;;;;0.40;0.20;;;6.20;99.90;;;;;;10459465;28;20519;-52
2020/12/04 06:27:46;;;;;;;1.02;0.55;;;6.20;99.90;;;;;;10464856;28;20123;-50
2020/12/04 06:33:32;;;;;;;1.33;0.38;;;6.20;99.90;;;;;;10447272;28;20041;-50
2020/12/04 06:38:53;;;;;;;0.63;0.25;;;6.20;99.90;;;;;;10452570;28;20051;-50
2020/12/04 06:44:20;;;;;;;0.35;0.20;;;6.20;99.90;;;;;;10461514;28;20492;-50
2020/12/04 06:49:41;;;;;;;1.10;0.38;;;6.20;99.90;;;;;;10461613;28;20033;-50
2020/12/04 06:55:02;;;;;;;1.30;0.30;;;6.30;99.90;;;;;;10463447;28;20485;-50
2020/12/04 07:00:23;;;;;;;0.68;0.30;;;6.40;99.90;;;;;;10462649;28;22252;-50
2020/12/04 07:05:44;;;;;;;1.00;0.28;;;6.40;99.90;;;;;;10457768;28;20029;-50
2020/12/04 07:11:05;;;;;;;3.15;0.70;;;6.40;99.90;;;;;;10460650;28;20031;-49
2020/12/04 07:16:27;;;;;;;1.58;0.38;;;6.40;99.90;;;;;;10466458;28;20040;-50
2020/12/04 07:21:49;;;;;;;1.58;0.30;;;6.40;99.90;;;;;;10461872;28;20059;-49
2020/12/04 07:27:14;;;;;;;1.15;0.30;;;6.50;99.90;;;;;;10458259;28;20025;-50
2020/12/04 07:32:35;;;;;;;0.45;0.25;;;6.60;99.90;;;;;;10459786;28;20037;-49
2020/12/04 07:37:56;;;;;;;1.08;0.50;;;6.60;99.90;;;;;;10450703;28;20060;-49
2020/12/04 07:43:18;;;;;;;0.60;0.30;;;6.70;99.90;;;;;;10451776;28;20392;-50
2020/12/04 07:48:39;;;;;;;1.25;0.30;;;6.70;99.90;;;;;;10461511;28;21048;-50
2020/12/04 07:54:04;;;;;;;0.10;0.03;;;7.00;99.90;;;;;;10458187;28;20130;-50
2020/12/04 07:59:28;;;;;;;2.03;0.30;;;7.20;99.90;;;;;;10452792;28;20037;-50
2020/12/04 08:04:49;;;;;;;0.77;0.20;;;7.30;99.90;;;;;;10440232;28;20040;-49
2020/12/04 08:10:17;;;;;;;0.20;0.08;;;7.40;99.90;;;;;;10456102;28;20399;-49
2020/12/04 08:15:41;;;;;;;0.15;0.00;;;7.50;99.90;;;;;;10455029;28;20041;-50
2020/12/04 08:21:06;;;;;;;0.38;0.00;;;7.60;99.90;;;;;;10457560;28;20068;-50
2020/12/04 08:26:27;;;;;;;3.10;0.00;;;7.70;99.90;;;;;;10459868;28;20036;-50
2020/12/04 08:31:48;;;;;;;0.50;0.20;;;7.80;99.90;;;;;;10455969;28;20029;-50
2020/12/04 08:37:12;;;;;;;1.25;0.10;;;7.80;99.90;;;;;;10449848;28;20036;-51
2020/12/04 08:42:34;;;;;;;0.10;0.00;;;7.80;99.90;;;;;;10453555;28;20039;-50
2020/12/04 08:48:06;;;;;;;0.55;0.10;;;7.80;99.90;;;;;;10449353;28;20548;-50
2020/12/04 08:53:27;;;;;;;0.30;0.08;;;7.80;99.90;;;;;;10457701;28;20055;-52
2020/12/04 08:58:48;;;;;;;0.10;0.05;;;7.80;99.90;;;;;;10455070;28;20044;-52
2020/12/04 09:04:09;;;;;;;0.65;0.30;;;7.70;99.90;;;;;;10451461;28;20048;-52
2020/12/04 09:09:30;;;;;;;0.47;0.47;;;7.80;99.90;;;;;;10456865;28;20074;-52
2020/12/04 09:14:51;;;;;;;0.00;0.00;;;7.70;99.90;;;;;;10459519;28;20468;-52
2020/12/04 09:20:14;;;;;;;0.38;0.20;;;7.50;99.90;;;;;;10447725;28;20036;-52
2020/12/04 09:25:35;;;;;;;0.40;0.20;;;7.50;99.90;;;;;;10458438;28;20058;-52
2020/12/04 09:30:58;;;;;;;0.63;0.03;;;7.40;99.90;;;;;;10450745;28;20037;-52
2020/12/04 09:36:19;;;;;;;0.32;0.10;;;7.50;99.90;;;;;;10447471;28;20033;-52
2020/12/04 09:41:44;;;;;;;0.30;0.10;;;7.50;99.90;;;;;;10456357;28;20040;-51
2020/12/04 09:47:05;;;;;;;0.15;0.00;;;7.50;99.90;;;;;;10454725;28;20148;-51
2020/12/04 09:52:26;;;;;;;0.75;0.20;;;7.50;99.90;;;;;;10451551;28;20126;-50
2020/12/04 09:57:47;;;;;;;0.43;0.10;;;7.60;99.90;;;;;;10452736;28;20048;-50
2020/12/04 10:03:08;;;;;;;0.73;0.70;;;7.50;99.90;;;;;;10443546;28;20039;-49
2020/12/04 10:08:29;;;;;;;0.20;0.10;;;7.50;99.90;;;;;;10454197;28;20486;-51
2020/12/04 10:13:50;;;;;;;0.10;0.00;;;7.60;99.90;;;;;;10455600;28;20531;-51
2020/12/04 10:19:16;;;;;;;0.22;0.03;;;7.50;99.90;;;;;;10449579;28;20045;-50
2020/12/04 10:24:37;;;;;;;0.10;0.00;;;7.60;99.90;;;;;;10458244;28;20044;-50
2020/12/04 10:29:58;;;;;;;0.35;0.03;;;7.50;99.90;;;;;;10461224;28;20709;-52
2020/12/04 10:35:19;;;;;;;0.15;0.00;;;7.60;99.90;;;;;;10453184;28;20047;-50
2020/12/04 10:40:40;;;;;;;1.50;0.30;;;7.50;99.90;;;;;;10459640;28;20610;-50
2020/12/04 10:46:01;;;;;;;0.40;0.05;;;7.50;99.90;;;;;;10467028;28;20126;-49
2020/12/04 10:51:23;;;;;;;1.67;0.20;;;7.60;99.90;;;;;;10464905;28;20033;-49
2020/12/04 10:56:44;;;;;;;0.20;0.10;;;7.50;99.90;;;;;;10470674;28;20037;-52
2020/12/04 11:02:15;;;;;;;0.08;0.05;;;7.50;99.90;;;;;;10465889;28;20043;-51
2020/12/04 11:07:36;;;;;;;0.52;0.15;;;7.60;99.90;;;;;;10460233;28;20063;-52
2020/12/04 11:12:57;;;;;;;0.20;0.00;;;7.80;99.90;;;;;;10460861;28;20451;-52
2020/12/04 11:18:17;;;;;;;0.57;0.32;;;8.60;99.90;;;;;;10456990;28;20140;-52
2020/12/04 11:23:38;;;;;;;0.77;0.20;;;9.70;99.90;;;;;;10456663;28;20120;-52
2020/12/04 11:29:00;;;;;;;0.45;0.10;;;9.10;99.90;;;;;;10460090;28;20044;-52
2020/12/04 11:34:21;;;;;;;0.60;0.13;;;9.50;99.90;;;;;;10443907;28;20043;-51
2020/12/04 11:39:42;;;;;;;0.20;0.10;;;9.00;99.90;;;;;;10446313;28;20044;-51
2020/12/04 11:45:04;;;;;;;0.32;0.10;;;8.30;99.90;;;;;;10454888;28;20082;-52
2020/12/04 11:50:25;;;;;;;0.20;0.03;;;8.00;99.90;;;;;;10454320;28;20037;-52
2020/12/04 11:55:46;;;;;;;0.20;0.10;;;8.00;99.90;;;;;;10466926;28;20032;-52
2020/12/04 12:01:07;;;;;;;0.30;0.10;;;7.80;99.90;;;;;;10454494;28;20159;-51
2020/12/04 12:06:30;;;;;;;0.40;0.10;;;7.70;99.90;;;;;;10454427;28;20124;-51
2020/12/04 12:11:51;;;;;;;0.50;0.17;;;7.90;99.90;;;;;;10453119;28;20037;-51
2020/12/04 12:17:13;;;;;;;0.32;0.00;;;7.80;99.90;;;;;;10452626;28;20076;-51
2020/12/04 12:22:34;;;;;;;1.10;0.30;;;7.70;99.90;;;;;;10452426;28;20037;-51
2020/12/04 12:27:55;;;;;;;0.60;0.20;;;7.70;99.90;;;;;;10451402;28;20076;-51
2020/12/04 12:33:16;;;;;;;0.32;0.10;;;7.70;99.90;;;;;;10455440;28;20032;-51
2020/12/04 12:38:36;;;;;;;0.10;0.10;;;7.70;99.90;;;;;;10454591;28;20059;-51
2020/12/04 12:43:57;;;;;;;0.13;0.05;;;7.60;99.90;;;;;;10453971;28;20064;-49
2020/12/04 12:49:18;;;;;;;0.95;0.20;;;7.50;99.90;;;;;;10452108;28;20041;-51
2020/12/04 12:54:40;;;;;;;0.52;0.17;;;7.60;99.90;;;;;;10455376;28;20048;-51
2020/12/04 13:00:01;;;;;;;0.43;0.10;;;7.60;99.90;;;;;;10457682;28;20045;-51
2020/12/04 13:05:34;;;;;;;0.30;0.10;;;7.60;99.90;;;;;;10459471;28;20098;-51
2020/12/04 13:10:55;;;;;;;0.60;0.20;;;7.50;99.90;;;;;;10454604;28;20036;-51
2020/12/04 13:16:16;;;;;;;0.00;0.00;;;7.50;99.90;;;;;;10454725;28;20161;-51
2020/12/04 13:21:57;;;;;;;0.30;0.20;;;7.60;99.90;;;;;;10455526;28;20049;-51
2020/12/04 13:27:18;;;;;;;0.10;0.10;;;7.50;99.90;;;;;;10458909;28;20132;-51
2020/12/04 13:32:39;;;;;;;0.20;0.10;;;7.60;99.90;;;;;;10452556;28;20032;-51
2020/12/04 13:38:01;;;;;;;0.20;0.00;;;7.60;99.90;;;;;;10448842;28;20120;-51
2020/12/04 13:43:22;;;;;;;0.65;0.10;;;7.60;99.90;;;;;;10448873;28;20040;-51
2020/12/04 13:48:43;;;;;;;0.43;0.10;;;7.70;99.90;;;;;;10459284;28;20041;-51
2020/12/04 13:54:06;;;;;;;0.55;0.20;;;7.70;99.90;;;;;;10452967;28;20033;-51
2020/12/04 13:59:27;;;;;;;0.17;0.10;;;7.70;99.90;;;;;;10458740;28;20484;-51
2020/12/04 14:04:48;;;;;;;0.38;0.10;;;7.60;99.90;;;;;;10453978;28;20045;-51
2020/12/04 14:10:09;;;;;;;1.90;0.40;;;7.60;99.90;;;;;;10446105;28;20585;-51
2020/12/04 14:15:30;;;;;;;4.28;0.40;;;7.60;99.90;;;;;;10455519;28;20060;-51
2020/12/04 14:20:51;;;;;;;1.05;0.17;;;7.60;99.90;;;;;;10458073;28;20235;-51
2020/12/04 14:26:12;;;;;;;0.28;0.00;;;7.60;99.90;;;;;;10451411;28;20029;-51
2020/12/04 14:31:33;;;;;;;0.30;0.00;;;7.40;99.90;;;;;;10443481;28;20041;-51
2020/12/04 14:36:58;;;;;;;0.00;0.00;;;7.40;99.90;;;;;;10455160;28;20052;-51
2020/12/04 14:42:21;;;;;;;0.05;0.00;;;7.30;99.90;;;;;;10459458;28;20044;-51
2020/12/04 14:47:42;;;;;;;0.10;0.00;;;7.20;99.90;;;;;;10457444;28;20063;-51
2020/12/04 14:53:03;;;;;;;0.93;0.28;;;7.20;99.90;;;;;;10462835;28;20054;-51
2020/12/04 14:58:23;;;;;;;0.43;0.20;;;7.20;99.90;;;;;;10458334;28;20037;-51
2020/12/04 15:03:45;;;;;;;0.85;0.20;;;7.10;99.90;;;;;;10462905;28;20579;-51
2020/12/04 15:09:06;;;;;;;0.85;0.17;;;7.00;99.90;;;;;;10452212;28;20037;-51
2020/12/04 15:14:27;;;;;;;0.05;0.00;;;7.00;99.90;;;;;;10460905;28;20535;-51
2020/12/04 15:19:48;;;;;;;0.00;0.00;;;7.00;99.90;;;;;;10460169;28;20411;-51
2020/12/04 15:25:09;;;;;;;0.30;0.10;;;6.90;99.90;;;;;;10450837;28;20315;-51
2020/12/04 15:30:30;;;;;;;4.07;0.20;;;6.80;99.90;;;;;;10457200;28;20118;-51
2020/12/04 15:35:51;;;;;;;0.50;0.20;;;6.70;99.90;;;;;;10462156;28;20043;-51
2020/12/04 15:41:12;;;;;;;0.25;0.10;;;6.80;99.90;;;;;;10451203;28;20166;-51
2020/12/04 15:46:33;;;;;;;0.40;0.15;;;6.80;99.90;;;;;;10455944;28;20045;-49
2020/12/04 15:51:55;;;;;;;0.10;0.00;;;6.80;99.90;;;;;;10451305;28;20542;-48
2020/12/04 15:57:16;;;;;;;0.10;0.00;;;6.80;99.90;;;;;;10458795;28;20044;-51
2020/12/04 16:02:37;;;;;;;0.80;0.20;;;6.80;99.90;;;;;;10454689;28;20044;-51
2020/12/04 16:07:58;;;;;;;0.17;0.10;;;6.80;99.90;;;;;;10453838;28;20041;-51
2020/12/04 16:13:19;;;;;;;0.10;0.00;;;6.70;99.90;;;;;;10448390;28;20040;-51
2020/12/04 16:18:40;;;;;;;0.47;0.20;;;6.70;99.90;;;;;;10447740;28;20052;-51
2020/12/04 16:24:01;;;;;;;0.57;0.30;;;6.70;99.90;;;;;;10452280;28;20044;-51
2020/12/04 16:29:23;;;;;;;0.90;0.38;;;6.70;99.90;;;;;;10443097;28;20036;-51
2020/12/04 16:34:44;;;;;;;0.40;0.20;;;6.60;99.90;;;;;;10435501;28;20089;-51
2020/12/04 16:40:05;;;;;;;0.47;0.25;;;6.50;99.90;;;;;;10443911;28;20075;-51
2020/12/04 16:45:26;;;;;;;0.40;0.17;;;6.50;99.90;;;;;;10446961;28;20795;-51
2020/12/04 16:50:47;;;;;;;0.88;0.22;;;6.40;99.90;;;;;;10446356;28;20373;-51
2020/12/04 16:56:09;;;;;;;0.35;0.10;;;6.40;99.90;;;;;;10434310;28;20508;-51
2020/12/04 17:01:31;;;;;;;0.50;0.28;;;6.40;99.90;;;;;;10448411;28;20509;-51
2020/12/04 17:06:55;;;;;;;0.82;0.32;;;6.40;99.90;;;;;;10449076;28;20102;-51
2020/12/04 17:12:16;;;;;;;0.50;0.22;;;6.40;99.90;;;;;;10444398;28;20045;-51
2020/12/04 17:17:37;;;;;;;0.43;0.20;;;6.40;99.90;;;;;;10452171;28;20052;-51
2020/12/04 17:22:58;;;;;;;1.15;0.30;;;6.40;99.90;;;;;;10451727;28;20048;-51
2020/12/04 17:28:19;;;;;;;0.25;0.25;;;6.30;99.90;;;;;;10445912;28;20132;-51
2020/12/04 17:33:40;;;;;;;1.65;0.52;;;6.30;99.90;;;;;;10450229;28;20028;-51
2020/12/04 17:39:01;;;;;;;1.90;0.40;;;6.30;99.90;;;;;;10455311;28;20041;-50
2020/12/04 17:44:22;;;;;;;0.50;0.20;;;6.30;99.90;;;;;;10447262;28;20044;-48
2020/12/04 17:49:43;;;;;;;0.60;0.25;;;6.30;99.90;;;;;;10448450;28;20048;-48
2020/12/04 17:55:11;;;;;;;0.70;0.30;;;6.30;99.90;;;;;;10448598;28;20037;-48
2020/12/04 18:00:33;;;;;;;1.35;0.20;;;6.20;99.90;;;;;;10450683;28;20616;-51
2020/12/04 18:05:54;;;;;;;1.30;0.95;;;6.20;99.90;;;;;;10451900;28;20161;-50
2020/12/04 18:11:23;;;;;;;1.02;0.30;;;6.20;99.90;;;;;;10449816;28;20041;-51
2020/12/04 18:16:44;;;;;;;3.37;0.30;;;6.10;99.90;;;;;;10452567;28;20174;-50
2020/12/04 18:22:05;;;;;;;1.20;0.20;;;6.10;99.90;;;;;;10454045;28;20127;-48
2020/12/04 18:27:26;;;;;;;0.50;0.20;;;6.10;99.90;;;;;;10461381;28;20124;-48
2020/12/04 18:32:47;;;;;;;2.03;0.30;;;6.00;99.90;;;;;;10457779;28;20751;-48
2020/12/04 18:38:09;;;;;;;0.85;0.35;;;5.90;99.90;;;;;;10453123;28;20052;-48
2020/12/04 18:43:30;;;;;;;0.40;0.30;;;5.90;99.90;;;;;;10453718;28;20048;-48
2020/12/04 18:48:51;;;;;;;0.52;0.20;;;5.80;99.90;;;;;;10460391;28;20767;-51
2020/12/04 18:54:12;;;;;;;1.02;0.45;;;5.80;99.90;;;;;;10462899;28;20123;-48
2020/12/04 18:59:33;;;;;;;0.57;0.20;;;5.60;99.90;;;;;;10460848;28;20628;-48
2020/12/04 19:04:54;;;;;;;1.25;0.38;;;5.60;99.90;;;;;;10467325;28;20053;-48
2020/12/04 19:10:15;;;;;;;0.52;0.43;;;5.60;99.90;;;;;;10459021;28;20604;-48
2020/12/04 19:15:36;;;;;;;0.70;0.20;;;5.60;99.90;;;;;;10452216;28;20093;-48
2020/12/04 19:20:57;;;;;;;0.63;0.20;;;5.60;99.90;;;;;;10456660;28;20513;-48
2020/12/04 19:26:18;;;;;;;1.30;0.38;;;5.50;99.90;;;;;;10452063;28;20071;-48
2020/12/04 19:31:39;;;;;;;0.80;0.30;;;5.50;99.90;;;;;;10457159;28;20036;-48
2020/12/04 19:37:00;;;;;;;1.02;0.63;;;5.40;99.90;;;;;;10443899;28;20573;-48
2020/12/04 19:42:21;;;;;;;1.45;0.30;;;5.30;99.90;;;;;;10458688;28;20049;-48
2020/12/04 19:47:44;;;;;;;1.30;0.22;;;5.30;99.90;;;;;;10453479;28;20029;-48
2020/12/04 19:53:06;;;;;;;1.58;0.40;;;5.20;99.90;;;;;;10454070;28;20082;-48
2020/12/04 19:58:27;;;;;;;1.58;0.45;;;5.20;99.90;;;;;;10456127;28;20037;-48
2020/12/04 20:03:48;;;;;;;2.53;0.52;;;5.20;99.90;;;;;;10465602;28;20052;-48
2020/12/04 20:09:09;;;;;;;1.48;0.68;;;5.20;99.90;;;;;;10459981;28;20571;-48
2020/12/04 20:14:30;;;;;;;11.60;0.50;;;5.10;99.90;;;;;;10451950;28;20773;-48
2020/12/04 20:19:51;;;;;;;0.63;0.22;;;5.20;99.90;;;;;;10451401;28;20067;-48
2020/12/04 20:25:12;;;;;;;0.80;0.38;;;5.10;99.90;;;;;;10455142;28;20055;-48
2020/12/04 20:30:33;;;;;;;3.17;0.63;;;5.10;99.90;;;;;;10454429;28;20044;-48
2020/12/04 20:35:54;;;;;;;2.85;0.90;;;5.10;99.90;;;;;;10452081;28;20568;-48
2020/12/04 20:41:16;;;;;;;2.28;0.55;;;5.00;99.90;;;;;;10457195;28;20024;-48
2020/12/04 20:46:37;;;;;;;1.02;0.30;;;5.00;99.90;;;;;;10468191;28;20575;-48
2020/12/04 20:51:58;;;;;;;1.40;0.50;;;4.90;99.90;;;;;;10457866;28;20044;-48
2020/12/04 20:57:19;;;;;;;2.08;0.50;;;4.90;99.90;;;;;;10447546;28;20710;-48
2020/12/04 21:02:40;;;;;;;2.50;0.50;;;4.80;99.90;;;;;;10466318;28;20041;-48
2020/12/04 21:08:01;;;;;;;1.50;0.82;;;4.90;99.90;;;;;;10464655;28;20485;-48
2020/12/04 21:13:22;;;;;;;2.63;1.55;;;4.80;99.90;;;;;;10458501;28;20052;-48
2020/12/04 21:18:43;;;;;;;5.72;0.88;;;4.60;99.90;;;;;;10466769;28;20040;-48
2020/12/04 21:24:04;;;;;;;0.65;0.43;;;4.60;99.90;;;;;;10457008;28;20824;-48
2020/12/04 21:29:25;;;;;;;2.38;0.88;;;4.40;99.90;;;;;;10467197;28;20055;-48
2020/12/04 21:34:46;;;;;;;2.08;0.98;;;4.30;99.90;;;;;;10449877;28;20052;-48
2020/12/04 21:40:08;;;;;;;2.55;1.17;;;4.20;99.90;;;;;;10466044;28;20033;-49
2020/12/04 21:45:29;;;;;;;2.47;0.98;;;4.00;99.90;;;;;;10448111;28;20040;-49
2020/12/04 21:50:50;;;;;;;2.40;1.25;;;3.90;99.90;;;;;;10459307;28;20041;-48
2020/12/04 21:56:21;;;;;;;3.15;1.60;;;3.70;99.90;;;;;;10452964;28;20048;-48
2020/12/04 22:01:42;;;;;;;3.17;1.15;;;3.80;99.90;;;;;;10448668;28;20029;-48
2020/12/04 22:07:03;;;;;;;2.70;1.55;;;3.60;99.90;;;;;;10446467;28;20472;-48
2020/12/04 22:12:24;;;;;;;5.55;1.00;;;3.50;99.90;;;;;;10444977;28;20033;-48
2020/12/04 22:17:45;;;;;;;2.10;1.02;;;3.60;99.90;;;;;;10452416;28;20403;-48
2020/12/04 22:23:06;;;;;;;4.00;1.75;;;3.60;99.90;;;;;;10449609;28;20036;-48
2020/12/04 22:28:27;;;;;;;4.07;1.00;;;3.60;99.90;;;;;;10452744;28;20040;-49
2020/12/04 22:33:49;;;;;;;1.58;0.82;;;3.70;99.90;;;;;;10442714;28;20307;-49
2020/12/04 22:39:10;;;;;;;3.35;0.70;;;3.70;99.90;;;;;;10453263;28;20520;-48
2020/12/04 22:44:31;;;;;;;1.90;0.90;;;3.70;99.90;;;;;;10458924;28;20045;-48
2020/12/04 22:49:52;;;;;;;10.02;1.90;;;3.70;99.90;;;;;;10456299;28;20110;-48
2020/12/04 22:55:13;;;;;;;4.35;1.08;;;3.70;99.90;;;;;;10441499;28;20040;-49
2020/12/04 23:00:34;;;;;;;2.65;1.50;;;3.80;99.90;;;;;;10461328;28;20090;-49
2020/12/04 23:05:55;;;;;;;4.35;1.52;;;3.60;99.90;;;;;;10459968;28;20052;-49
2020/12/04 23:11:16;;;;;;;4.50;1.17;;;3.60;99.90;;;;;;10461387;28;20032;-49
2020/12/04 23:16:37;;;;;;;5.15;0.95;;;3.60;99.90;;;;;;10461015;28;20045;-48
2020/12/04 23:21:58;;;;;;;1.73;0.70;;;3.50;99.90;;;;;;10447260;28;20047;-48
2020/12/04 23:27:19;;;;;;;3.42;0.77;;;3.40;99.90;;;;;;10452272;28;20590;-49
2020/12/04 23:32:41;;;;;;;2.35;1.23;;;3.40;99.90;;;;;;10454411;28;20115;-48
2020/12/04 23:38:02;;;;;;;3.60;0.77;;;3.40;99.90;;;;;;10452621;28;20045;-48
2020/12/04 23:43:24;;;;;;;1.80;0.80;;;3.30;99.90;;;;;;10463799;28;20063;-49
2020/12/04 23:48:45;;;;;;;8.02;1.65;;;3.10;99.90;;;;;;10456680;28;20074;-48
2020/12/04 23:54:06;;;;;;;4.38;1.98;;;3.10;99.90;;;;;;10458273;28;20067;-49
2020/12/04 23:59:27;;;;;;;2.60;1.02;;;3.10;99.90;;;;;;10455113;28;20469;-49
